Huvudsida
METAR-TAF:

METAR-TAF

Flygplatser :

Ventspils lidosta

Ventspils, Lettland

latitud: 57-21-28N, longitud: 021-32-39E, höjd: 6 m

Aktuellt väderrapport

Denna rapport gjordes för 32 minuter sedan, klockan 12:20 UTC
Vind 8 kt från väst
Temperatur 21°C
Fuktighet 83%
Tryck 1017 hPa
Sikt 10 km eller mer
Spridda moln på en höjd av 1400 ft
Spridda moln på en höjd av 2200 ft
Brutna moln på en höjd av 3300 ft

METAR: EVVA 181220Z AUTO 26008KT 9999 SCT014 SCT022 BKN033 21/18 Q1017

Tid: 15:52 (12:52 UTC)


TAF: saknas

Aktuella väderrapporter och prognoser från 4000 flygplatser (METAR- och TAF-rapporter).

De tillgängliga stationerna syns som gula och röda prickar på kartan.

För musen över prickarna för att se namnen på stationerna.

Klicka sedan för att få väderrapporter och prognoser.

För att ändra kartan: Klicka på de gröna knapparna med ett svart kors på för att zooma in; den gröna knappen med ett streck på för att zooma ut; eller på de gröna pilarna för angränsande kartor.


METAR-TAF: